createdAt,value
2023-04-30T00:00:52.961Z,77.06
2023-04-30T00:03:42.863Z,77.18
2023-04-30T00:06:31.888Z,76.63
2023-04-30T00:09:20.459Z,76.96
2023-04-30T00:12:08.858Z,77.15
2023-04-30T00:14:57.312Z,77.36
2023-04-30T00:17:49.465Z,77.23
2023-04-30T00:20:39.253Z,77.41
2023-04-30T00:23:27.642Z,77.32
2023-04-30T00:26:16.069Z,77.36
2023-04-30T00:29:08.348Z,77.66
2023-04-30T00:31:57.009Z,77.88
2023-04-30T00:34:46.027Z,78.05
2023-04-30T00:37:35.884Z,77.98
2023-04-30T00:40:24.363Z,77.54
2023-04-30T00:43:12.793Z,77.53
2023-04-30T00:46:01.215Z,77.25
2023-04-30T00:48:50.189Z,77.09
2023-04-30T00:51:41.658Z,77.47
2023-04-30T00:54:31.504Z,77.42
2023-04-30T00:57:19.995Z,78.22
2023-04-30T01:00:11.475Z,78.59
2023-04-30T01:02:59.982Z,78.55
2023-04-30T01:05:48.584Z,78.92
2023-04-30T01:08:37.041Z,78.76
2023-04-30T01:11:33.680Z,78.71
2023-04-30T01:14:27.073Z,78.78
2023-04-30T01:17:19.756Z,78.26
2023-04-30T01:20:09.290Z,78.34
2023-04-30T01:23:04.169Z,78.54
2023-04-30T01:26:01.413Z,78.67
2023-04-30T01:28:51.901Z,78.35
2023-04-30T01:31:40.383Z,78.25
2023-04-30T01:34:28.785Z,78.08
2023-04-30T01:37:23.513Z,77.54
2023-04-30T01:40:22.655Z,77.81
2023-04-30T01:43:13.725Z,77.32
2023-04-30T01:46:09.582Z,77.07
2023-04-30T01:49:05.270Z,77.01
2023-04-30T01:51:59.599Z,76.98
2023-04-30T01:54:52.739Z,76.87
2023-04-30T01:57:43.995Z,76.34
2023-04-30T02:00:32.564Z,76.95
2023-04-30T02:03:23.031Z,76.27
2023-04-30T02:06:11.539Z,76.44
2023-04-30T02:09:03.511Z,76.47
2023-04-30T02:11:52.370Z,76.05
2023-04-30T02:14:40.791Z,76.68
2023-04-30T02:17:29.234Z,76.51
2023-04-30T02:20:19.039Z,76.48
2023-04-30T02:23:09.872Z,76.18
2023-04-30T02:25:58.246Z,76.15
2023-04-30T02:28:46.650Z,76.01
2023-04-30T02:31:35.047Z,75.89
2023-04-30T02:34:23.466Z,75.74
2023-04-30T02:37:13.228Z,75.79
2023-04-30T02:40:01.656Z,75.77
2023-04-30T02:42:50.099Z,75.91
2023-04-30T02:45:38.515Z,75.57
2023-04-30T02:48:27.248Z,75.94
2023-04-30T02:51:15.636Z,75.56
2023-04-30T02:54:05.601Z,75.33
2023-04-30T02:56:54.578Z,75.04
2023-04-30T02:59:45.954Z,74.98
2023-04-30T03:02:34.724Z,75.83
2023-04-30T03:05:24.189Z,75.61
2023-04-30T03:08:12.934Z,75.67
2023-04-30T03:11:02.780Z,75.68
2023-04-30T03:13:51.792Z,75.83
2023-04-30T03:16:40.559Z,75.67
2023-04-30T03:19:29.006Z,76.10
2023-04-30T03:22:19.480Z,75.99
2023-04-30T03:25:08.495Z,75.97
2023-04-30T03:27:58.544Z,76.07
2023-04-30T03:30:47.824Z,75.81
2023-04-30T03:33:36.502Z,76.72
2023-04-30T03:36:24.902Z,76.05
2023-04-30T03:39:13.219Z,76.85
2023-04-30T03:42:03.525Z,76.00
2023-04-30T03:44:53.364Z,76.18
2023-04-30T03:47:41.723Z,75.99
2023-04-30T03:50:30.741Z,75.99
2023-04-30T03:53:19.051Z,75.21
2023-04-30T03:56:08.224Z,75.37
2023-04-30T03:58:56.576Z,75.18
2023-04-30T04:01:46.515Z,75.38
2023-04-30T04:04:35.416Z,76.19
2023-04-30T04:07:23.767Z,75.92
2023-04-30T04:10:12.273Z,76.24
2023-04-30T04:13:00.871Z,75.51
2023-04-30T04:15:49.301Z,75.52
2023-04-30T04:18:39.005Z,75.72
2023-04-30T04:21:27.403Z,75.96
2023-04-30T04:24:15.850Z,76.53
2023-04-30T04:27:04.447Z,76.68
2023-04-30T04:29:55.117Z,77.08
2023-04-30T04:32:49.612Z,77.05
2023-04-30T04:35:39.904Z,77.35
2023-04-30T04:38:28.303Z,77.09
2023-04-30T04:41:16.760Z,76.65
2023-04-30T04:44:05.585Z,77.10
2023-04-30T04:46:54.144Z,77.18
2023-04-30T04:49:42.573Z,76.88
2023-04-30T04:52:32.301Z,76.50
2023-04-30T04:55:20.747Z,77.36
2023-04-30T04:58:12.771Z,77.39
2023-04-30T05:01:01.341Z,76.73
2023-04-30T05:03:51.205Z,76.38
2023-04-30T05:06:40.930Z,76.81
2023-04-30T05:09:30.779Z,76.02
2023-04-30T05:12:21.050Z,76.43
2023-04-30T05:15:10.235Z,76.50
2023-04-30T05:17:58.687Z,76.50
2023-04-30T05:20:47.214Z,75.32
2023-04-30T05:23:35.593Z,76.29
2023-04-30T05:26:25.390Z,76.48
2023-04-30T05:29:14.085Z,76.25
2023-04-30T05:32:02.904Z,76.06
2023-04-30T05:34:51.571Z,76.30
2023-04-30T05:37:39.867Z,75.06
2023-04-30T05:40:28.250Z,75.42
2023-04-30T05:43:17.973Z,75.97
2023-04-30T05:46:06.694Z,75.79
2023-04-30T05:48:55.178Z,75.75
2023-04-30T05:51:43.545Z,75.36
2023-04-30T05:54:32.266Z,75.06
2023-04-30T05:57:20.879Z,75.53
2023-04-30T06:00:12.567Z,75.58
2023-04-30T06:03:01.283Z,74.93
2023-04-30T06:05:49.746Z,74.64
2023-04-30T06:08:38.114Z,74.72
2023-04-30T06:11:27.263Z,74.73
2023-04-30T06:14:16.015Z,75.07
2023-04-30T06:17:05.737Z,74.68
2023-04-30T06:19:54.275Z,75.15
2023-04-30T06:22:42.791Z,74.85
2023-04-30T06:25:31.168Z,74.48
2023-04-30T06:28:19.497Z,74.62
2023-04-30T06:31:07.993Z,75.20
2023-04-30T06:33:57.781Z,74.67
2023-04-30T06:36:46.108Z,74.76
2023-04-30T06:39:34.559Z,74.34
2023-04-30T06:42:22.902Z,73.23
2023-04-30T06:45:12.421Z,73.42
2023-04-30T06:48:00.921Z,73.78
2023-04-30T06:50:50.698Z,73.20
2023-04-30T06:53:39.068Z,72.84
2023-04-30T06:56:27.404Z,72.47
2023-04-30T06:59:16.635Z,72.80
2023-04-30T07:02:04.940Z,71.51
2023-04-30T07:04:54.518Z,71.08
2023-04-30T07:07:44.241Z,72.13
2023-04-30T07:10:32.713Z,72.33
2023-04-30T07:13:21.159Z,72.14
2023-04-30T07:16:10.672Z,71.77
2023-04-30T07:18:59.962Z,72.37
2023-04-30T07:21:48.363Z,72.49
2023-04-30T07:24:38.101Z,70.74
2023-04-30T07:27:26.513Z,70.53
2023-04-30T07:30:14.805Z,70.71
2023-04-30T07:33:03.314Z,70.82
2023-04-30T07:35:52.411Z,70.02
2023-04-30T07:38:40.865Z,68.81
2023-04-30T07:41:30.686Z,69.32
2023-04-30T07:44:19.105Z,69.49
2023-04-30T07:47:07.447Z,69.09
2023-04-30T07:49:56.231Z,68.63
2023-04-30T07:52:44.735Z,68.53
2023-04-30T07:55:33.076Z,67.00
2023-04-30T07:58:22.874Z,66.76
2023-04-30T08:01:11.254Z,66.45
2023-04-30T08:03:59.780Z,66.28
2023-04-30T08:06:48.292Z,65.91
2023-04-30T08:09:36.767Z,65.18
2023-04-30T08:12:25.210Z,65.67
2023-04-30T08:15:14.944Z,66.19
2023-04-30T08:18:03.884Z,64.07
2023-04-30T08:20:52.238Z,64.58
2023-04-30T08:23:40.705Z,65.63
2023-04-30T08:26:29.099Z,65.25
2023-04-30T08:29:17.508Z,63.05
2023-04-30T08:32:07.405Z,63.80
2023-04-30T08:34:55.937Z,63.09
2023-04-30T08:37:44.575Z,63.55
2023-04-30T08:40:50.189Z,63.26
2023-04-30T08:43:40.651Z,63.50
2023-04-30T08:46:31.064Z,62.71
2023-04-30T08:49:21.942Z,62.42
2023-04-30T08:52:11.664Z,62.42
2023-04-30T08:55:00.395Z,62.71
2023-04-30T08:57:48.793Z,64.36
2023-04-30T09:00:38.960Z,62.65
2023-04-30T09:03:28.511Z,62.68
2023-04-30T09:06:18.793Z,63.97
2023-04-30T09:09:11.851Z,60.64
2023-04-30T09:12:16.917Z,60.73
2023-04-30T09:15:09.097Z,60.43
2023-04-30T09:18:08.507Z,60.62
2023-04-30T09:20:58.390Z,59.31
2023-04-30T09:23:57.823Z,59.12
2023-04-30T09:26:48.416Z,59.51
2023-04-30T09:29:38.055Z,58.54
2023-04-30T09:32:26.748Z,59.25
2023-04-30T09:35:30.214Z,59.46
2023-04-30T09:38:29.281Z,58.44
2023-04-30T09:41:26.812Z,58.23
2023-04-30T09:44:31.058Z,59.63
2023-04-30T09:47:20.931Z,59.13
2023-04-30T09:50:10.333Z,58.92
2023-04-30T09:53:06.887Z,58.77
2023-04-30T09:55:57.353Z,58.87
2023-04-30T09:58:52.018Z,58.52
2023-04-30T10:01:41.215Z,57.89
2023-04-30T10:04:33.326Z,58.79
2023-04-30T10:07:23.076Z,57.75
2023-04-30T10:10:12.034Z,57.28
2023-04-30T10:13:02.896Z,57.24
2023-04-30T10:15:54.289Z,55.80
2023-04-30T10:18:43.996Z,54.91
2023-04-30T10:21:33.994Z,54.95
2023-04-30T10:24:22.357Z,54.31
2023-04-30T10:27:10.903Z,55.80
2023-04-30T10:30:00.672Z,56.02
2023-04-30T10:33:04.056Z,55.81
2023-04-30T10:35:56.664Z,55.04
2023-04-30T10:38:47.826Z,54.72
2023-04-30T10:41:36.803Z,54.76
2023-04-30T10:44:27.527Z,56.46
2023-04-30T10:47:19.269Z,55.07
2023-04-30T10:50:12.104Z,55.50
2023-04-30T10:53:04.601Z,54.63
2023-04-30T10:55:54.944Z,55.04
2023-04-30T10:58:44.190Z,54.44
2023-04-30T11:01:32.671Z,54.33
2023-04-30T11:04:21.096Z,52.19
2023-04-30T11:07:11.688Z,52.54
2023-04-30T11:10:00.184Z,52.03
2023-04-30T11:12:49.300Z,53.84
2023-04-30T11:15:42.378Z,52.95
2023-04-30T11:18:31.216Z,52.85
2023-04-30T11:21:21.794Z,52.84
2023-04-30T11:24:11.562Z,52.10
2023-04-30T11:27:06.594Z,51.14
2023-04-30T11:29:56.104Z,51.90
2023-04-30T11:32:47.526Z,52.29
2023-04-30T11:35:36.577Z,51.28
2023-04-30T11:38:28.541Z,51.39
2023-04-30T11:41:18.771Z,53.50
2023-04-30T11:44:23.498Z,52.31
2023-04-30T11:47:12.031Z,52.99
2023-04-30T11:50:00.561Z,54.16
2023-04-30T11:52:51.134Z,52.96
2023-04-30T11:55:42.834Z,55.13
2023-04-30T11:58:38.013Z,53.37
2023-04-30T12:01:28.581Z,52.92
2023-04-30T12:04:17.150Z,52.09
2023-04-30T12:07:09.134Z,49.80
2023-04-30T12:09:57.803Z,52.92
2023-04-30T12:12:46.694Z,51.36
2023-04-30T12:15:37.168Z,49.98
2023-04-30T12:18:25.553Z,51.85
2023-04-30T12:21:14.353Z,50.95
2023-04-30T12:24:03.544Z,49.44
2023-04-30T12:26:54.733Z,49.93
2023-04-30T12:29:45.551Z,49.46
2023-04-30T12:32:39.299Z,49.20
2023-04-30T12:35:31.110Z,48.75
2023-04-30T12:38:20.355Z,48.20
2023-04-30T12:41:13.708Z,49.25
2023-04-30T12:44:24.334Z,49.24
2023-04-30T12:47:14.421Z,46.55
2023-04-30T12:50:04.648Z,45.15
2023-04-30T12:52:52.982Z,48.71
2023-04-30T12:55:42.239Z,45.55
2023-04-30T12:58:32.026Z,46.22
2023-04-30T13:01:23.103Z,47.34
2023-04-30T13:04:11.591Z,45.38
2023-04-30T13:07:01.342Z,45.11
2023-04-30T13:09:49.803Z,46.83
2023-04-30T13:12:38.198Z,45.66
2023-04-30T13:15:26.723Z,47.29
2023-04-30T13:18:15.910Z,47.49
2023-04-30T13:21:04.353Z,49.43
2023-04-30T13:23:55.295Z,48.16
2023-04-30T13:26:45.003Z,47.91
2023-04-30T13:29:33.525Z,49.59
2023-04-30T13:32:21.965Z,48.30
2023-04-30T13:35:11.487Z,49.20
2023-04-30T13:38:00.363Z,48.93
2023-04-30T13:40:50.215Z,48.43
2023-04-30T13:43:42.085Z,48.05
2023-04-30T13:46:31.293Z,47.58
2023-04-30T13:49:19.694Z,47.50
2023-04-30T13:52:08.058Z,47.60
2023-04-30T13:54:57.279Z,47.75
2023-04-30T13:57:47.015Z,49.35
2023-04-30T14:00:35.431Z,47.28
2023-04-30T14:03:23.920Z,47.44
2023-04-30T14:06:12.539Z,47.76
2023-04-30T14:09:01.076Z,47.65
2023-04-30T14:11:49.475Z,45.90
2023-04-30T14:14:39.395Z,47.83
2023-04-30T14:17:28.289Z,45.60
2023-04-30T14:20:17.008Z,47.57
2023-04-30T14:23:05.341Z,46.81
2023-04-30T14:25:54.635Z,45.39
2023-04-30T14:28:43.010Z,45.41
2023-04-30T14:31:32.937Z,45.34
2023-04-30T14:34:21.333Z,45.79
2023-04-30T14:37:09.707Z,44.25
2023-04-30T14:39:58.772Z,42.87
2023-04-30T14:42:47.164Z,43.09
2023-04-30T14:45:35.671Z,43.76
2023-04-30T14:48:25.424Z,44.11
2023-04-30T14:51:13.887Z,41.53
2023-04-30T14:54:03.456Z,42.74
2023-04-30T14:56:52.131Z,44.30
2023-04-30T14:59:41.906Z,41.95
2023-04-30T15:02:30.436Z,41.60
2023-04-30T15:05:20.357Z,40.12
2023-04-30T15:08:08.984Z,41.05
2023-04-30T15:10:57.933Z,40.74
2023-04-30T15:13:48.229Z,39.98
2023-04-30T15:16:37.219Z,40.27
2023-04-30T15:19:25.717Z,38.87
2023-04-30T15:22:16.282Z,39.32
2023-04-30T15:25:05.472Z,39.77
2023-04-30T15:27:53.894Z,40.51
2023-04-30T15:30:43.000Z,40.99
2023-04-30T15:33:31.617Z,37.93
2023-04-30T15:36:22.322Z,39.05
2023-04-30T15:39:12.040Z,37.72
2023-04-30T15:42:00.582Z,38.81
2023-04-30T15:44:48.944Z,41.27
2023-04-30T15:47:37.452Z,38.83
2023-04-30T15:50:26.120Z,40.46
2023-04-30T15:53:14.528Z,40.00
2023-04-30T15:56:05.067Z,39.49
2023-04-30T15:58:54.155Z,38.78
2023-04-30T16:01:42.983Z,39.92
2023-04-30T16:04:31.380Z,39.37
2023-04-30T16:07:19.763Z,40.04
2023-04-30T16:10:09.732Z,39.29
2023-04-30T16:12:59.451Z,39.81
2023-04-30T16:15:47.875Z,38.97
2023-04-30T16:18:36.223Z,39.54
2023-04-30T16:21:24.877Z,39.05
2023-04-30T16:24:16.495Z,39.51
2023-04-30T16:27:05.068Z,40.17
2023-04-30T16:29:55.148Z,40.85
2023-04-30T16:32:44.410Z,39.73
2023-04-30T16:35:32.998Z,40.63
2023-04-30T16:38:21.936Z,41.11
2023-04-30T16:41:10.322Z,41.78
2023-04-30T16:43:59.277Z,41.76
2023-04-30T16:46:49.089Z,42.53
2023-04-30T16:49:37.481Z,42.75
2023-04-30T16:52:25.977Z,43.56
2023-04-30T16:55:14.380Z,44.16
2023-04-30T16:58:02.761Z,44.69
2023-04-30T17:00:56.008Z,43.81
2023-04-30T17:03:46.249Z,43.57
2023-04-30T17:06:35.518Z,44.38
2023-04-30T17:09:24.177Z,45.29
2023-04-30T17:12:12.552Z,44.34
2023-04-30T17:15:00.915Z,45.57
2023-04-30T17:17:49.330Z,45.37
2023-04-30T17:20:39.300Z,45.05
2023-04-30T17:23:27.674Z,45.52
2023-04-30T17:26:16.099Z,45.64
2023-04-30T17:29:04.516Z,45.59
2023-04-30T17:31:53.077Z,46.16
2023-04-30T17:34:42.415Z,46.09
2023-04-30T17:37:32.130Z,46.49
2023-04-30T17:40:20.533Z,46.05
2023-04-30T17:43:09.394Z,46.00
2023-04-30T17:45:57.808Z,46.24
2023-04-30T17:48:46.615Z,45.69
2023-04-30T17:51:35.440Z,46.47
2023-04-30T17:54:25.243Z,46.78
2023-04-30T17:57:13.714Z,46.96
2023-04-30T18:00:02.110Z,46.14
2023-04-30T18:02:51.172Z,46.47
2023-04-30T18:05:40.071Z,47.17
2023-04-30T18:08:28.674Z,46.68
2023-04-30T18:11:18.406Z,47.34
2023-04-30T18:14:06.895Z,47.35
2023-04-30T18:16:55.297Z,47.29
2023-04-30T18:19:44.686Z,47.79
2023-04-30T18:22:33.116Z,47.07
2023-04-30T18:25:21.990Z,48.08
2023-04-30T18:28:11.700Z,48.41
2023-04-30T18:31:00.057Z,48.60
2023-04-30T18:33:48.453Z,48.32
2023-04-30T18:36:37.012Z,48.39
2023-04-30T18:39:25.478Z,49.02
2023-04-30T18:42:14.644Z,49.28
2023-04-30T18:45:04.644Z,49.55
2023-04-30T18:47:53.105Z,49.79
2023-04-30T18:50:43.255Z,49.90
2023-04-30T18:53:31.774Z,49.72
2023-04-30T18:56:21.122Z,50.25
2023-04-30T18:59:10.374Z,50.63
2023-04-30T19:02:00.221Z,50.23
2023-04-30T19:04:49.338Z,51.33
2023-04-30T19:07:37.629Z,50.43
2023-04-30T19:10:26.260Z,51.42
2023-04-30T19:13:14.585Z,50.73
2023-04-30T19:16:03.233Z,51.61
2023-04-30T19:18:53.028Z,52.44
2023-04-30T19:21:41.365Z,52.60
2023-04-30T19:24:29.707Z,53.21
2023-04-30T19:27:18.078Z,53.57
2023-04-30T19:30:08.022Z,53.39
2023-04-30T19:32:56.408Z,54.38
2023-04-30T19:35:49.117Z,54.73
2023-04-30T19:38:37.433Z,53.48
2023-04-30T19:41:26.009Z,54.38
2023-04-30T19:44:14.448Z,55.13
2023-04-30T19:47:03.527Z,54.44
2023-04-30T19:49:52.894Z,54.80
2023-04-30T19:52:42.658Z,55.23
2023-04-30T19:55:32.532Z,56.09
2023-04-30T19:58:21.005Z,56.62
2023-04-30T20:01:09.378Z,56.54
2023-04-30T20:03:58.071Z,56.69
2023-04-30T20:06:47.508Z,56.96
2023-04-30T20:09:37.820Z,57.39
2023-04-30T20:12:26.534Z,57.36
2023-04-30T20:15:15.002Z,57.09
2023-04-30T20:18:05.744Z,57.38
2023-04-30T20:20:54.345Z,57.49
2023-04-30T20:23:42.718Z,57.92
2023-04-30T20:26:33.088Z,57.65
2023-04-30T20:29:23.158Z,57.66
2023-04-30T20:32:11.794Z,58.15
2023-04-30T20:35:00.294Z,58.20
2023-04-30T20:37:49.716Z,58.18
2023-04-30T20:40:40.153Z,58.31
2023-04-30T20:43:29.855Z,57.91
2023-04-30T20:46:18.532Z,58.52
2023-04-30T20:49:06.878Z,57.94
2023-04-30T20:51:55.386Z,57.89
2023-04-30T20:54:43.825Z,58.69
2023-04-30T20:57:32.244Z,58.69
2023-04-30T21:00:22.218Z,58.74
2023-04-30T21:03:10.768Z,58.84
2023-04-30T21:05:59.399Z,59.04
2023-04-30T21:08:48.699Z,58.81
2023-04-30T21:11:39.074Z,59.25
2023-04-30T21:14:27.549Z,59.43
2023-04-30T21:17:17.222Z,59.30
2023-04-30T21:20:06.169Z,59.53
2023-04-30T21:22:55.553Z,59.05
2023-04-30T21:25:44.043Z,59.50
2023-04-30T21:28:32.639Z,59.73
2023-04-30T21:31:21.348Z,60.52
2023-04-30T21:34:11.075Z,60.45
2023-04-30T21:36:59.873Z,60.21
2023-04-30T21:39:48.234Z,60.43
2023-04-30T21:42:36.696Z,60.70
2023-04-30T21:45:25.062Z,61.26
2023-04-30T21:48:13.609Z,60.97
2023-04-30T21:51:04.411Z,61.33
2023-04-30T21:53:52.725Z,61.32
2023-04-30T21:56:41.170Z,61.74
2023-04-30T21:59:29.501Z,61.77
2023-04-30T22:02:23.363Z,61.80
2023-04-30T22:05:13.041Z,62.10
2023-04-30T22:08:03.755Z,61.69
2023-04-30T22:10:56.814Z,61.90
2023-04-30T22:13:45.189Z,61.42
2023-04-30T22:16:34.024Z,61.71
2023-04-30T22:19:22.511Z,62.18
2023-04-30T22:22:10.899Z,62.07
2023-04-30T22:25:00.604Z,61.93
2023-04-30T22:27:48.981Z,62.12
2023-04-30T22:30:37.403Z,61.88
2023-04-30T22:33:25.887Z,62.83
2023-04-30T22:36:14.248Z,63.00
2023-04-30T22:39:02.585Z,62.83
2023-04-30T22:41:52.468Z,63.32
2023-04-30T22:44:41.028Z,63.28
2023-04-30T22:47:29.386Z,63.95
2023-04-30T22:50:17.869Z,63.55
2023-04-30T22:53:06.428Z,63.34
2023-04-30T22:55:55.311Z,62.81
2023-04-30T22:58:44.982Z,62.45
2023-04-30T23:01:34.611Z,62.97
2023-04-30T23:04:23.116Z,63.46
2023-04-30T23:07:11.522Z,63.49
2023-04-30T23:09:59.942Z,63.97
2023-04-30T23:12:48.327Z,63.72
2023-04-30T23:15:38.122Z,64.24
2023-04-30T23:18:26.492Z,64.01
2023-04-30T23:21:14.834Z,64.09
2023-04-30T23:24:04.334Z,64.51
2023-04-30T23:26:52.693Z,65.06
2023-04-30T23:29:41.104Z,64.71
2023-04-30T23:32:31.564Z,64.76
2023-04-30T23:35:20.042Z,64.53
2023-04-30T23:38:08.407Z,64.46
2023-04-30T23:40:57.587Z,64.70
2023-04-30T23:43:45.925Z,64.44
2023-04-30T23:46:34.285Z,65.22
2023-04-30T23:49:25.019Z,65.23
2023-04-30T23:52:14.430Z,64.51
2023-04-30T23:55:02.847Z,64.67
2023-04-30T23:57:51.343Z,64.96
